^^
Saratoga-Weather Station Historical Data
Daily Summary for April 4, 2020 Units:  English    Metric   Both
Daily Weekly Monthly Yearly Custom
  High: Low: Average:
Temperature: 59.5 °F 47.1 °F 51.3 °F
Dew Point: 52.2 °F 45.7 °F 48.2 °F
Humidity: 96% 65% 89%
Wind Speed: 10.1mph 0mph 2.3mph
Wind Gust: 19mph - -
Wind- - South
Pressure: 29.5 in 29.1 in -
Precipitation: 0.56 in    
Historical Graphs
 
 
Tabular Data for April 4, 2020
Time Temperature Dew Point Pressure Wind Wind Speed Wind Gust Humidity Rainfall Rate (Hourly) solar
00:02 50.5 °F 48.6 °F 29.2 in NE 10.1 mph 10 mph 93% 0.06 in 0 W/m2
00:07 50.5 °F 48.9 °F 29.2 in ENE 4.9 mph 7 mph 94% 0.06 in 0 W/m2
00:12 50.5 °F 48.9 °F 29.2 in ENE 4 mph 9 mph 94% 0.06 in 0 W/m2
00:17 50.4 °F 48.7 °F 29.1 in NE 2 mph 8 mph 94% 0.06 in 0 W/m2
00:22 50.4 °F 48.7 °F 29.1 in East 4 mph 12 mph 94% 0.06 in 0 W/m2
00:27 50.4 °F 48.7 °F 29.1 in NNE 2 mph 12 mph 94% 0.07 in 0 W/m2
00:32 50.4 °F 48.7 °F 29.1 in East 2.9 mph 9 mph 94% 0.07 in 0 W/m2
00:37 50.2 °F 48.6 °F 29.1 in ESE 2.9 mph 12 mph 94% 0.07 in 0 W/m2
00:42 50.4 °F 48.7 °F 29.1 in NE 0.9 mph 7 mph 94% 0.06 in 0 W/m2
00:47 50.4 °F 48.7 °F 29.1 in NNE 2 mph 8 mph 94% 0.06 in 0 W/m2
00:52 50.4 °F 48.7 °F 29.1 in East 2.9 mph 9 mph 94% 0.06 in 0 W/m2
00:57 50.2 °F 48.6 °F 29.1 in East 6.9 mph 9 mph 94% 0.06 in 0 W/m2
01:02 50.2 °F 48.6 °F 29.1 in East 4 mph 13 mph 94% 0.05 in 0 W/m2
01:07 50.2 °F 48.6 °F 29.1 in NE 4.9 mph 13 mph 94% 0.05 in 0 W/m2
01:12 50.2 °F 48.6 °F 29.1 in East 2.9 mph 13 mph 94% 0.04 in 0 W/m2
01:17 50.2 °F 48.6 °F 29.1 in ENE 4 mph 13 mph 94% 0.03 in 0 W/m2
01:22 50.2 °F 48.6 °F 29.1 in SSE 2 mph 8 mph 94% 0.03 in 0 W/m2
01:27 50.2 °F 48.6 °F 29.1 in NE 4 mph 13 mph 94% 0.02 in 0 W/m2
01:32 50.2 °F 48.6 °F 29.1 in ENE 4 mph 9 mph 94% 0.02 in 0 W/m2
01:37 50.2 °F 48.6 °F 29.1 in NE 4 mph 6 mph 94% 0.02 in 0 W/m2
01:42 50.2 °F 48.7 °F 29.1 in NE 2.9 mph 5 mph 95% 0.02 in 0 W/m2
01:47 50.2 °F 48.7 °F 29.1 in East 6.9 mph 13 mph 95% 0.01 in 0 W/m2
01:52 50.2 °F 48.7 °F 29.1 in Calm   4 mph 95% 0.02 in 0 W/m2
01:57 50.2 °F 48.7 °F 29.1 in SSE 2 mph 10 mph 95% 0.02 in 0 W/m2
02:03 50.2 °F 48.7 °F 29.1 in SE 0.9 mph 3 mph 95% 0.01 in 0 W/m2
02:08 50.4 °F 48.9 °F 29.1 in ENE 2 mph 6 mph 95% 0.01 in 0 W/m2
02:13 50.4 °F 48.9 °F 29.1 in ENE 0.9 mph 5 mph 95% 0.01 in 0 W/m2
02:18 50.4 °F 48.9 °F 29.1 in NNE 0.9 mph 5 mph 95% 0.01 in 0 W/m2
02:23 50.4 °F 48.7 °F 29.1 in East 2 mph 4 mph 94% 0.01 in 0 W/m2
02:28 50.4 °F 48.7 °F 29.1 in NE 2 mph 2 mph 94% 0.01 in 0 W/m2
02:33 50.4 °F 48.7 °F 29.1 in Calm   5 mph 94% 0.01 in 0 W/m2
02:38 50.4 °F 48.7 °F 29.1 in ENE 0.9 mph 3 mph 94% 0.01 in 0 W/m2
02:43 50.4 °F 48.9 °F 29.1 in Calm   3 mph 95% 0.02 in 0 W/m2
02:48 50.2 °F 48.7 °F 29.1 in East 0.9 mph 4 mph 95% 0.02 in 0 W/m2
02:53 50.2 °F 48.7 °F 29.1 in North 0.9 mph 5 mph 95% 0.02 in 0 W/m2
02:58 50.2 °F 48.7 °F 29.1 in NW 0.9 mph 3 mph 95% 0.02 in 0 W/m2
03:03 50.2 °F 48.7 °F 29.1 in ESE 0.9 mph 6 mph 95% 0.02 in 0 W/m2
03:08 50.4 °F 48.7 °F 29.1 in West 2 mph 5 mph 94% 0.02 in 0 W/m2
03:13 50.4 °F 48.7 °F 29.1 in Calm   6 mph 94% 0.03 in 0 W/m2
03:18 50.4 °F 48.7 °F 29.1 in NW 0.9 mph 9 mph 94% 0.03 in 0 W/m2
03:23 50.4 °F 48.7 °F 29.1 in NW 2 mph 4 mph 94% 0.04 in 0 W/m2
03:28 50.5 °F 48.9 °F 29.2 in SE 2 mph 14 mph 94% 0.05 in 0 W/m2
03:33 50.5 °F 48.9 °F 29.2 in West 6 mph 7 mph 94% 0.05 in 0 W/m2
03:38 50.7 °F 49.1 °F 29.2 in WNW 4 mph 14 mph 94% 0.05 in 0 W/m2
03:43 50.7 °F 49.1 °F 29.2 in ENE 0.9 mph 7 mph 94% 0.05 in 0 W/m2
03:48 50.7 °F 49.1 °F 29.2 in WSW 2 mph 4 mph 94% 0.06 in 0 W/m2
03:53 50.7 °F 49.1 °F 29.2 in NNW 2.9 mph 11 mph 94% 0.06 in 0 W/m2
03:58 50.7 °F 49.1 °F 29.2 in NW 0.9 mph 8 mph 94% 0.07 in 0 W/m2
04:03 50.7 °F 49.1 °F 29.2 in NW 2 mph 11 mph 94% 0.09 in 0 W/m2
04:08 50.7 °F 49.1 °F 29.2 in NE 6 mph 9 mph 94% 0.09 in 0 W/m2
04:13 50.7 °F 49.1 °F 29.2 in ENE 0.9 mph 4 mph 94% 0.09 in 0 W/m2
04:18 50.7 °F 49.1 °F 29.2 in NNW 2 mph 9 mph 94% 0.09 in 0 W/m2
04:23 50.7 °F 49.1 °F 29.2 in WNW 4 mph 8 mph 94% 0.08 in 0 W/m2
04:28 50.9 °F 49.3 °F 29.2 in SSW 4 mph 14 mph 94% 0.07 in 0 W/m2
04:33 50.9 °F 48.9 °F 29.2 in WNW 4 mph 8 mph 93% 0.07 in 0 W/m2
04:38 50.9 °F 48.9 °F 29.2 in WNW 10.1 mph 10 mph 93% 0.08 in 0 W/m2
04:43 51.1 °F 49.1 °F 29.2 in NW 6 mph 12 mph 93% 0.07 in 0 W/m2
04:48 50.9 °F 48.9 °F 29.2 in West 2 mph 6 mph 93% 0.06 in 0 W/m2
04:53 50.9 °F 48.7 °F 29.2 in NNE 0.9 mph 11 mph 92% 0.05 in 0 W/m2
04:58 50.7 °F 48.7 °F 29.2 in North 4 mph 4 mph 93% 0.04 in 0 W/m2
05:03 50.7 °F 48.7 °F 29.2 in WNW 4 mph 9 mph 93% 0.02 in 0 W/m2
05:08 50.5 °F 48.6 °F 29.2 in NNW 4 mph 4 mph 93% 0.02 in 0 W/m2
05:13 50.4 °F 48.4 °F 29.2 in East 2 mph 5 mph 93% 0.02 in 0 W/m2
05:18 50.4 °F 48.4 °F 29.2 in ENE 0.9 mph 5 mph 93% 0.02 in 0 W/m2
05:23 50.2 °F 48.2 °F 29.2 in North 0.9 mph 3 mph 93% 0.02 in 0 W/m2
05:28 50.2 °F 48.2 °F 29.2 in NNW 2 mph 5 mph 93% 0.02 in 0 W/m2
05:33 50.2 °F 48.2 °F 29.2 in ENE 0.9 mph 3 mph 93% 0.02 in 0 W/m2
05:38 50.2 °F 48.2 °F 29.2 in NNW 2 mph 4 mph 93% 0.02 in 0 W/m2
05:43 50.2 °F 48.2 °F 29.2 in ENE 0.9 mph 3 mph 93% 0.02 in 0 W/m2
05:48 50.2 °F 48.2 °F 29.2 in NNW 2.9 mph 5 mph 93% 0.02 in 0 W/m2
05:53 50.2 °F 48.2 °F 29.2 in NE 2 mph 4 mph 93% 0.02 in 0 W/m2
05:58 49.8 °F 47.8 °F 29.2 in Calm   4 mph 93% 0.02 in 0 W/m2
06:03 49.8 °F 47.8 °F 29.2 in NNW 2 mph 4 mph 93% 0.02 in 0 W/m2
06:08 49.6 °F 47.7 °F 29.2 in NW 2.9 mph 8 mph 93% 0.03 in 0 W/m2
06:13 49.5 °F 47.5 °F 29.2 in NW 2.9 mph 4 mph 93% 0.03 in 0 W/m2
06:18 49.3 °F 47.3 °F 29.2 in North 0.9 mph 8 mph 93% 0.03 in 0 W/m2
06:23 49.3 °F 47.7 °F 29.2 in Calm   6 mph 94% 0.03 in 0 W/m2
06:28 49.1 °F 47.5 °F 29.2 in NNE 2 mph 4 mph 94% 0.04 in 0 W/m2
06:33 49.1 °F 47.5 °F 29.2 in North 2.9 mph 5 mph 94% 0.05 in 0 W/m2
06:38 49.3 °F 47.7 °F 29.2 in NE 2 mph 3 mph 94% 0.06 in 0 W/m2
06:43 49.3 °F 47.7 °F 29.2 in ENE 2.9 mph 6 mph 94% 0.06 in 0 W/m2
06:48 49.5 °F 47.8 °F 29.2 in NNW 2 mph 3 mph 94% 0.06 in 0 W/m2
06:53 49.5 °F 47.8 °F 29.2 in NE 2.9 mph 11 mph 94% 0.07 in 0 W/m2
06:59 49.6 °F 48 °F 29.3 in NW 2 mph 8 mph 94% 0.08 in 0 W/m2
07:04 49.6 °F 48 °F 29.3 in East 2.9 mph 5 mph 94% 0.08 in 0 W/m2
07:09 49.8 °F 48.2 °F 29.3 in NW 2 mph 10 mph 94% 0.08 in 0 W/m2
07:14 49.8 °F 48.2 °F 29.3 in NE 0.9 mph 4 mph 94% 0.07 in 0 W/m2
07:19 49.8 °F 48.2 °F 29.3 in NNW 2 mph 8 mph 94% 0.07 in 0 W/m2
07:24 49.8 °F 48.2 °F 29.3 in NE 0.9 mph 2 mph 94% 0.07 in 0 W/m2
07:29 49.8 °F 47.8 °F 29.3 in West 2.9 mph 9 mph 93% 0.06 in 0 W/m2
07:34 49.8 °F 47.8 °F 29.3 in NW 2.9 mph 6 mph 93% 0.06 in 0 W/m2
07:39 49.8 °F 47.8 °F 29.3 in North 2.9 mph 9 mph 93% 0.06 in 0 W/m2
07:44 50 °F 48 °F 29.3 in NW 4.9 mph 9 mph 93% 0.05 in 0 W/m2
07:49 50 °F 48 °F 29.3 in WNW 2.9 mph 7 mph 93% 0.05 in 0 W/m2
07:54 49.8 °F 47.8 °F 29.3 in NW 0.9 mph 7 mph 93% 0.05 in 0 W/m2
07:59 49.8 °F 47.8 °F 29.3 in NNE 2 mph 8 mph 93% 0.04 in 0 W/m2
08:04 49.8 °F 47.8 °F 29.3 in NNW 2.9 mph 4 mph 93% 0.04 in 5 W/m2
08:09 49.8 °F 47.8 °F 29.3 in NW 0.9 mph 4 mph 93% 0.03 in 9 W/m2
08:14 49.6 °F 47.7 °F 29.3 in West 2.9 mph 8 mph 93% 0.03 in 11 W/m2
08:19 49.6 °F 47.7 °F 29.3 in West 4 mph 12 mph 93% 0.03 in 18 W/m2
08:24 49.6 °F 47.7 °F 29.3 in ENE 4.9 mph 13 mph 93% 0.02 in 23 W/m2
08:29 49.6 °F 47.5 °F 29.3 in East 2.9 mph 9 mph 92% 0.02 in 19 W/m2
08:34 49.5 °F 47.3 °F 29.3 in WNW 2 mph 18 mph 92% 0.02 in 21 W/m2
08:39 49.5 °F 47.5 °F 29.3 in WNW 8.9 mph 14 mph 93% 0.02 in 21 W/m2
08:44 49.5 °F 47.5 °F 29.3 in West 2.9 mph 10 mph 93% 0.02 in 18 W/m2
08:49 49.3 °F 47.3 °F 29.3 in North 0.9 mph 14 mph 93% 0.02 in 14 W/m2
08:54 49.3 °F 47.3 °F 29.3 in WSW 2 mph 17 mph 93% 0.02 in 16 W/m2
08:59 49.1 °F 47.1 °F 29.3 in NE 2 mph 5 mph 93% 0.02 in 33 W/m2
09:04 48.9 °F 46.9 °F 29.3 in NNW 0.9 mph 9 mph 93% 0.01 in 32 W/m2
09:09 48.9 °F 46.9 °F 29.3 in North 2 mph 8 mph 93% 0.02 in 25 W/m2
09:14 48.9 °F 46.9 °F 29.4 in East 0.9 mph 19 mph 93% 0.02 in 23 W/m2
09:19 48.7 °F 46.8 °F 29.4 in NNW 2 mph 5 mph 93% 0.02 in 37 W/m2
09:24 48.7 °F 46.8 °F 29.4 in NW 6 mph 19 mph 93% 0.02 in 51 W/m2
09:29 48.7 °F 46.8 °F 29.4 in South 2 mph 13 mph 93% 0.02 in 47 W/m2
09:34 48.7 °F 46.8 °F 29.4 in NW 8.9 mph 11 mph 93% 0.02 in 60 W/m2
09:39 48.7 °F 46.8 °F 29.4 in WNW 4.9 mph 13 mph 93% 0.02 in 46 W/m2
09:44 48.7 °F 46.6 °F 29.4 in NW 4.9 mph 5 mph 92% 0.02 in 44 W/m2
09:49 48.7 °F 46.6 °F 29.4 in NW 2 mph 7 mph 92% 0.02 in 72 W/m2
09:54 48.9 °F 46.8 °F 29.4 in SE 2 mph 8 mph 92% 0.02 in 54 W/m2
09:59 48.7 °F 46.6 °F 29.4 in West 4 mph 17 mph 92% 0.02 in 114 W/m2
10:04 48.7 °F 46.2 °F 29.4 in NNW 2 mph 8 mph 91% 0.02 in 86 W/m2
10:09 48.7 °F 45.9 °F 29.4 in SW 2 mph 6 mph 90% 0 in 74 W/m2
10:14 48.9 °F 46 °F 29.4 in NW 2.9 mph 6 mph 90% 0 in 93 W/m2
10:19 48.9 °F 46 °F 29.4 in NNW 2.9 mph 5 mph 90% 0 in 63 W/m2
10:24 48.9 °F 46 °F 29.4 in NNW 8.9 mph 11 mph 90% 0 in 102 W/m2
10:29 48.9 °F 46 °F 29.4 in WNW 2 mph 8 mph 90% 0 in 151 W/m2
10:34 49.1 °F 46.2 °F 29.4 in NNW 8.9 mph 9 mph 90% 0 in 197 W/m2
10:39 49.3 °F 46.4 °F 29.4 in Calm   4 mph 90% 0 in 192 W/m2
10:44 49.5 °F 46.6 °F 29.4 in SW 4.9 mph 6 mph 90% 0 in 202 W/m2
10:49 49.6 °F 46.6 °F 29.4 in North 4 mph 5 mph 89% 0 in 425 W/m2
10:54 50 °F 46.9 °F 29.4 in NNW 2.9 mph 7 mph 89% 0 in 504 W/m2
10:59 50.4 °F 46.6 °F 29.4 in WSW 2 mph 16 mph 87% 0 in 480 W/m2
11:04 50.7 °F 46.9 °F 29.4 in ENE 4.9 mph 6 mph 87% 0 in 376 W/m2
11:09 51.1 °F 47.3 °F 29.4 in NNW 4 mph 4 mph 87% 0 in 206 W/m2
11:14 51.3 °F 47.3 °F 29.4 in North 2 mph 4 mph 86% 0 in 206 W/m2
11:19 51.3 °F 46.9 °F 29.4 in SW 4.9 mph 8 mph 85% 0 in 279 W/m2
11:24 51.3 °F 46.9 °F 29.4 in NNW 4.9 mph 9 mph 85% 0 in 283 W/m2
11:29 51.4 °F 47.5 °F 29.4 in North 4 mph 6 mph 86% 0 in 267 W/m2
11:34 51.4 °F 47.1 °F 29.4 in WNW 2 mph 8 mph 85% 0 in 295 W/m2
11:39 51.6 °F 46.9 °F 29.4 in East 4 mph 7 mph 84% 0 in 244 W/m2
11:44 52 °F 47.7 °F 29.4 in NNW 2.9 mph 4 mph 85% 0 in 188 W/m2
11:49 52 °F 47.3 °F 29.4 in NNE 2.9 mph 7 mph 84% 0 in 172 W/m2
11:54 52.2 °F 47.5 °F 29.4 in West 2.9 mph 9 mph 84% 0 in 186 W/m2
11:59 52.2 °F 47.5 °F 29.4 in NNW 4 mph 4 mph 84% 0 in 267 W/m2
12:04 52.3 °F 47.7 °F 29.4 in NW 2.9 mph 7 mph 84% 0 in 267 W/m2
12:09 52.9 °F 47.8 °F 29.4 in West 0.9 mph 5 mph 83% 0 in 295 W/m2
12:14 53.2 °F 48.2 °F 29.4 in NW 4.9 mph 9 mph 83% 0 in 278 W/m2
12:19 53.4 °F 48 °F 29.4 in ENE 2 mph 10 mph 82% 0 in 192 W/m2
12:24 53.6 °F 47.8 °F 29.4 in NW 4 mph 4 mph 81% 0 in 554 W/m2
12:29 54 °F 48 °F 29.4 in North 4 mph 5 mph 80% 0 in 271 W/m2
12:34 54.5 °F 48.2 °F 29.4 in WSW 2.9 mph 12 mph 79% 0 in 121 W/m2
12:39 54.7 °F 48 °F 29.4 in NW 2 mph 11 mph 78% 0 in 271 W/m2
12:44 54.7 °F 48 °F 29.4 in NW 0.9 mph 12 mph 78% 0 in 232 W/m2
12:49 54.9 °F 48.2 °F 29.4 in NNE 2.9 mph 4 mph 78% 0 in 195 W/m2
12:54 55.2 °F 48.6 °F 29.4 in NNE 2.9 mph 8 mph 78% 0 in 330 W/m2
12:59 55.6 °F 48.6 °F 29.4 in East 6 mph 6 mph 77% 0 in 397 W/m2
13:04 55.9 °F 48.6 °F 29.4 in North 4.9 mph 5 mph 76% 0 in 496 W/m2
13:09 56.1 °F 48.7 °F 29.4 in Calm   4 mph 76% 0 in 188 W/m2
13:14 56.1 °F 48.4 °F 29.4 in East 2 mph 4 mph 75% 0 in 121 W/m2
13:19 55.9 °F 48.2 °F 29.4 in WNW 2.9 mph 8 mph 75% 0 in 127 W/m2
13:24 55.6 °F 47.8 °F 29.4 in West 2 mph 4 mph 75% 0 in 86 W/m2
13:29 55.6 °F 48.2 °F 29.4 in ENE 2 mph 3 mph 76% 0 in 149 W/m2
13:34 55.4 °F 48.4 °F 29.4 in North 0.9 mph 3 mph 77% 0 in 243 W/m2
13:39 55.8 °F 48.4 °F 29.4 in ESE 0.9 mph 7 mph 76% 0 in 350 W/m2
13:44 55.9 °F 48.6 °F 29.4 in NNW 0.9 mph 3 mph 76% 0 in 279 W/m2
13:49 56.5 °F 48.9 °F 29.4 in NW 2 mph 3 mph 76% 0 in 176 W/m2
13:54 56.5 °F 48.4 °F 29.4 in WNW 2 mph 4 mph 74% 0 in 186 W/m2
13:59 56.7 °F 48 °F 29.4 in Calm   6 mph 73% 0 in 297 W/m2
14:04 56.8 °F 48.2 °F 29.4 in Calm   4 mph 73% 0 in 225 W/m2
14:09 57.4 °F 48.4 °F 29.4 in NE 4 mph 4 mph 72% 0 in 197 W/m2
14:14 57.6 °F 48.6 °F 29.4 in NNW 0.9 mph 2 mph 72% 0 in 237 W/m2
14:19 57.7 °F 48.4 °F 29.4 in North 0.9 mph 5 mph 71% 0 in 181 W/m2
14:24 57.7 °F 48 °F 29.4 in WNW 2 mph 3 mph 70% 0 in 267 W/m2
14:29 57.9 °F 48.2 °F 29.4 in North 2 mph 5 mph 70% 0 in 248 W/m2
14:34 58.3 °F 48.9 °F 29.4 in NNW 4.9 mph 5 mph 71% 0 in 281 W/m2
14:40 58.6 °F 48.2 °F 29.4 in NE 2.9 mph 7 mph 68% 0 in 260 W/m2
14:45 59 °F 48.4 °F 29.4 in SSE 0.9 mph 6 mph 68% 0 in 213 W/m2
14:50 59.4 °F 48.4 °F 29.4 in NW 4 mph 9 mph 67% 0 in 213 W/m2
14:55 59.4 °F 48.4 °F 29.4 in NNE 2 mph 6 mph 67% 0 in 144 W/m2
15:00 59.5 °F 47.8 °F 29.4 in NNW 2 mph 6 mph 65% 0 in 165 W/m2
15:05 59.5 °F 48.2 °F 29.4 in NE 0.9 mph 4 mph 66% 0 in 221 W/m2
15:10 59.5 °F 48.2 °F 29.4 in ENE 0.9 mph 4 mph 66% 0 in 255 W/m2
15:15 59.4 °F 48.4 °F 29.4 in NNE 8.1 mph 13 mph 67% 0 in 223 W/m2
15:20 58.6 °F 48.6 °F 29.4 in East 2.9 mph 5 mph 69% 0 in 90 W/m2
15:25 57.9 °F 48.6 °F 29.4 in East 2.9 mph 13 mph 71% 0 in 100 W/m2
15:30 57.4 °F 50.2 °F 29.4 in ESE 0.9 mph 3 mph 77% 0.01 in 202 W/m2
15:35 56.8 °F 49.6 °F 29.4 in NE 2 mph 5 mph 77% 0.01 in 79 W/m2
15:40 56.5 °F 49.6 °F 29.4 in ESE 2.9 mph 5 mph 78% 0.01 in 137 W/m2
15:45 56.5 °F 50.4 °F 29.4 in NW 2 mph 4 mph 80% 0.02 in 294 W/m2
15:50 56.5 °F 50.7 °F 29.4 in North 0.9 mph 5 mph 81% 0.02 in 575 W/m2
15:55 56.8 °F 51.4 °F 29.4 in NNW 0.9 mph 2 mph 82% 0.02 in 200 W/m2
16:00 57 °F 50.9 °F 29.4 in North 0.9 mph 5 mph 80% 0.02 in 199 W/m2
16:05 56.8 °F 50.7 °F 29.4 in NW 2 mph 8 mph 80% 0.02 in 260 W/m2
16:10 56.8 °F 51.1 °F 29.4 in NW 0.9 mph 5 mph 81% 0.02 in 137 W/m2
16:15 56.8 °F 51.4 °F 29.4 in WNW 0.9 mph 3 mph 82% 0.02 in 84 W/m2
16:20 56.7 °F 51.3 °F 29.4 in Calm   5 mph 82% 0.02 in 60 W/m2
16:25 56.7 °F 52.2 °F 29.4 in Calm     85% 0.02 in 100 W/m2
16:30 56.7 °F 52.2 °F 29.4 in ENE 0.9 mph 1 mph 85% 0.01 in 54 W/m2
16:35 56.5 °F 52 °F 29.4 in WSW 2.9 mph 3 mph 85% 0.01 in 28 W/m2
16:40 56.1 °F 51.6 °F 29.4 in SW 4.9 mph 6 mph 85% 0.02 in 16 W/m2
16:45 55.9 °F 51.8 °F 29.4 in Calm   1 mph 86% 0.02 in 14 W/m2
16:50 55.2 °F 50.7 °F 29.4 in NNW 2.9 mph 5 mph 85% 0.04 in 30 W/m2
16:55 54.7 °F 50.2 °F 29.4 in North 4 mph 5 mph 85% 0.04 in 26 W/m2
17:00 54 °F 49.6 °F 29.4 in Calm   2 mph 85% 0.04 in 18 W/m2
17:05 53.8 °F 49.6 °F 29.4 in NNE 2.9 mph 4 mph 86% 0.06 in 9 W/m2
17:10 53.2 °F 49.5 °F 29.4 in NW 4 mph 5 mph 87% 0.06 in 12 W/m2
17:15 52.9 °F 49.5 °F 29.4 in WNW 2.9 mph 4 mph 88% 0.07 in 11 W/m2
17:20 52.5 °F 49.5 °F 29.4 in Calm   3 mph 89% 0.1 in 12 W/m2
17:25 52.2 °F 49.1 °F 29.4 in NNW 0.9 mph 9 mph 89% 0.13 in 21 W/m2
17:30 52 °F 49.1 °F 29.4 in NNW 2.9 mph 4 mph 90% 0.14 in 21 W/m2
17:35 51.6 °F 48.7 °F 29.4 in ENE 2 mph 3 mph 90% 0.16 in 28 W/m2
17:40 51.4 °F 48.6 °F 29.4 in North 2 mph 3 mph 90% 0.16 in 46 W/m2
17:45 51.4 °F 48.9 °F 29.4 in NNW 0.9 mph 3 mph 91% 0.16 in 46 W/m2
17:50 51.4 °F 48.9 °F 29.4 in NNE 2 mph 3 mph 91% 0.13 in 49 W/m2
17:55 51.3 °F 48.7 °F 29.4 in NW 2.9 mph 4 mph 91% 0.13 in 47 W/m2
18:00 51.4 °F 48.9 °F 29.4 in ENE 2.9 mph 4 mph 91% 0.14 in 74 W/m2
18:05 51.4 °F 48.9 °F 29.4 in Calm   3 mph 91% 0.13 in 114 W/m2
18:10 51.6 °F 49.1 °F 29.4 in NNE 2 mph 3 mph 91% 0.12 in 128 W/m2
18:15 51.8 °F 49.3 °F 29.4 in NE 0.9 mph 2 mph 91% 0.1 in 77 W/m2
18:21 51.8 °F 49.3 °F 29.4 in ENE 2.9 mph 5 mph 91% 0.08 in 47 W/m2
18:26 51.8 °F 49.3 °F 29.4 in NE 2.9 mph 4 mph 91% 0.05 in 37 W/m2
18:31 51.6 °F 49.1 °F 29.4 in East 2 mph 4 mph 91% 0.04 in 32 W/m2
18:36 51.6 °F 48.7 °F 29.4 in ENE 2.9 mph 4 mph 90% 0.02 in 30 W/m2
18:41 51.4 °F 48.9 °F 29.5 in East 0.9 mph 3 mph 91% 0.02 in 26 W/m2
18:46 51.4 °F 48.9 °F 29.5 in NNE 0.9 mph 4 mph 91% 0.01 in 18 W/m2
18:51 51.3 °F 48.7 °F 29.5 in Calm     91% 0.01 in 16 W/m2
18:56 51.3 °F 49.1 °F 29.5 in Calm   4 mph 92% 0 in 9 W/m2
19:01 50.9 °F 48.7 °F 29.5 in Calm   2 mph 92% 0 in 7 W/m2
19:06 50.7 °F 48.6 °F 29.5 in Calm   2 mph 92% 0 in 0 W/m2
19:11 50.4 °F 48.2 °F 29.5 in Calm   2 mph 92% 0 in 0 W/m2
19:16 50.2 °F 48 °F 29.5 in Calm   1 mph 92% 0 in 0 W/m2
19:21 49.8 °F 47.8 °F 29.5 in East 0.9 mph 2 mph 93% 0 in 0 W/m2
19:26 49.6 °F 47.7 °F 29.5 in Calm   3 mph 93% 0 in 0 W/m2
19:31 49.6 °F 48 °F 29.5 in Calm   2 mph 94% 0 in 0 W/m2
19:36 49.6 °F 48 °F 29.5 in NE 0.9 mph 4 mph 94% 0 in 0 W/m2
19:41 49.6 °F 48 °F 29.5 in ENE 2 mph 3 mph 94% 0 in 0 W/m2
19:46 49.8 °F 48.2 °F 29.5 in NE 2.9 mph 3 mph 94% 0 in 0 W/m2
19:51 49.8 °F 48.2 °F 29.5 in Calm   1 mph 94% 0 in 0 W/m2
19:56 49.8 °F 48.2 °F 29.5 in ENE 2.9 mph 3 mph 94% 0 in 0 W/m2
20:01 49.6 °F 48 °F 29.5 in Calm   1 mph 94% 0 in 0 W/m2
20:06 49.6 °F 48 °F 29.5 in Calm     94% 0 in 0 W/m2
20:11 49.3 °F 47.7 °F 29.5 in SE 0.9 mph 2 mph 94% 0 in 0 W/m2
20:16 49.3 °F 47.7 °F 29.5 in NE 0.9 mph 4 mph 94% 0 in 0 W/m2
20:22 49.3 °F 47.8 °F 29.5 in Calm   1 mph 95% 0 in 0 W/m2
20:27 49.1 °F 47.5 °F 29.5 in NE 0.9 mph 3 mph 94% 0 in 0 W/m2
20:32 48.9 °F 47.3 °F 29.5 in ENE 0.9 mph 4 mph 94% 0 in 0 W/m2
20:37 48.7 °F 47.1 °F 29.5 in Calm   2 mph 94% 0 in 0 W/m2
20:42 48.7 °F 47.3 °F 29.5 in NE 0.9 mph 4 mph 95% 0 in 0 W/m2
20:47 48.9 °F 47.5 °F 29.5 in NNE 0.9 mph 3 mph 95% 0 in 0 W/m2
20:52 48.9 °F 47.5 °F 29.5 in ENE 0.9 mph 6 mph 95% 0 in 0 W/m2
20:57 49.1 °F 47.7 °F 29.5 in ENE 0.9 mph 4 mph 95% 0 in 0 W/m2
21:02 49.3 °F 47.8 °F 29.5 in NNE 2.9 mph 6 mph 95% 0 in 0 W/m2
21:07 49.5 °F 48 °F 29.5 in Calm   5 mph 95% 0 in 0 W/m2
21:12 49.6 °F 48 °F 29.5 in ENE 2.9 mph 5 mph 94% 0 in 0 W/m2
21:17 49.8 °F 48.2 °F 29.5 in East 2 mph 4 mph 94% 0 in 0 W/m2
21:22 49.6 °F 48 °F 29.5 in ENE 2 mph 4 mph 94% 0 in 0 W/m2
21:27 49.6 °F 48 °F 29.5 in East 0.9 mph 4 mph 94% 0 in 0 W/m2
21:32 49.6 °F 47.7 °F 29.5 in ENE 2 mph 4 mph 93% 0 in 0 W/m2
21:37 49.5 °F 47.5 °F 29.5 in NE 0.9 mph 3 mph 93% 0 in 0 W/m2
21:42 49.5 °F 47.8 °F 29.5 in NE 2 mph 4 mph 94% 0 in 0 W/m2
21:47 49.5 °F 47.5 °F 29.5 in NE 0.9 mph 4 mph 93% 0 in 0 W/m2
21:52 49.3 °F 47.3 °F 29.5 in East 0.9 mph 4 mph 93% 0 in 0 W/m2
21:57 49.3 °F 47.7 °F 29.5 in NE 2.9 mph 7 mph 94% 0 in 0 W/m2
22:02 49.1 °F 47.5 °F 29.5 in NE 2 mph 4 mph 94% 0 in 0 W/m2
22:07 48.9 °F 47.3 °F 29.5 in ENE 0.9 mph 2 mph 94% 0 in 0 W/m2
22:12 48.9 °F 47.3 °F 29.5 in Calm   1 mph 94% 0 in 0 W/m2
22:17 48.6 °F 46.9 °F 29.5 in Calm   1 mph 94% 0 in 0 W/m2
22:22 48.4 °F 46.8 °F 29.5 in Calm   2 mph 94% 0 in 0 W/m2
22:27 48 °F 46.4 °F 29.5 in Calm   2 mph 94% 0 in 0 W/m2
22:32 47.8 °F 46.2 °F 29.5 in Calm   1 mph 94% 0 in 0 W/m2
22:37 47.7 °F 46 °F 29.5 in SE 0.9 mph 2 mph 94% 0 in 0 W/m2
22:42 47.5 °F 45.9 °F 29.5 in SE 0.9 mph 2 mph 94% 0 in 0 W/m2
22:47 47.3 °F 45.7 °F 29.5 in ESE 2 mph 3 mph 94% 0 in 0 W/m2
22:52 47.3 °F 45.9 °F 29.5 in ESE 0.9 mph 2 mph 95% 0 in 0 W/m2
22:57 47.1 °F 45.7 °F 29.5 in ENE 4 mph 4 mph 95% 0 in 0 W/m2
23:02 47.7 °F 46.2 °F 29.5 in NE 0.9 mph 4 mph 95% 0 in 0 W/m2
23:07 47.8 °F 46.8 °F 29.5 in ENE 2 mph 5 mph 96% 0 in 0 W/m2
23:12 48 °F 46.6 °F 29.5 in East 2 mph 6 mph 95% 0 in 0 W/m2
23:17 48 °F 46.6 °F 29.5 in ENE 2 mph 4 mph 95% 0 in 0 W/m2
23:22 48.4 °F 46.9 °F 29.5 in East 2.9 mph 5 mph 95% 0 in 0 W/m2
23:27 48.6 °F 47.1 °F 29.5 in ENE 4 mph 4 mph 95% 0 in 0 W/m2
23:32 48.6 °F 47.1 °F 29.5 in NNE 2.9 mph 4 mph 95% 0 in 0 W/m2
23:37 48.7 °F 47.3 °F 29.5 in WNW 0.9 mph 4 mph 95% 0 in 0 W/m2
23:42 48.9 °F 47.5 °F 29.5 in East 2 mph 3 mph 95% 0 in 0 W/m2
23:47 48.9 °F 47.5 °F 29.5 in NE 2.9 mph 4 mph 95% 0 in 0 W/m2
23:52 49.1 °F 47.5 °F 29.5 in NE 0.9 mph 3 mph 94% 0 in 0 W/m2
23:57 49.3 °F 47.7 °F 29.5 in ENE 2 mph 4 mph 94% 0 in 0 W/m2
Juneau County Weather
Compliments of Weather Underground - 4 mb